createdAt,value
2022-10-31T00:00:14.092Z,1.70
2022-10-31T00:02:40.722Z,1.10
2022-10-31T00:05:07.453Z,1.30
2022-10-31T00:07:33.939Z,1.42
2022-10-31T00:10:00.404Z,1.27
2022-10-31T00:12:27.151Z,2.13
2022-10-31T00:14:57.143Z,2.38
2022-10-31T00:17:24.010Z,1.20
2022-10-31T00:19:50.606Z,1.48
2022-10-31T00:22:17.083Z,1.25
2022-10-31T00:24:43.535Z,1.73
2022-10-31T00:27:10.299Z,1.80
2022-10-31T00:29:36.750Z,1.83
2022-10-31T00:32:03.229Z,1.73
2022-10-31T00:34:29.685Z,1.63
2022-10-31T00:36:56.213Z,1.95
2022-10-31T00:39:22.707Z,1.60
2022-10-31T00:41:49.184Z,1.60
2022-10-31T00:44:15.678Z,1.83
2022-10-31T00:46:42.138Z,2.30
2022-10-31T00:49:08.757Z,1.38
2022-10-31T00:51:35.247Z,1.67
2022-10-31T00:54:01.701Z,2.08
2022-10-31T00:56:28.170Z,2.53
2022-10-31T00:58:54.741Z,2.30
2022-10-31T01:01:21.506Z,1.77
2022-10-31T01:03:48.035Z,2.95
2022-10-31T01:06:14.621Z,1.77
2022-10-31T01:08:41.377Z,1.65
2022-10-31T01:11:09.237Z,2.38
2022-10-31T01:13:36.771Z,1.77
2022-10-31T01:16:04.357Z,1.70
2022-10-31T01:18:31.262Z,1.98
2022-10-31T01:20:58.637Z,1.55
2022-10-31T01:23:25.111Z,1.98
2022-10-31T01:25:59.339Z,1.50
2022-10-31T01:30:52.223Z,1.40
2022-10-31T01:33:18.726Z,1.52
2022-10-31T01:35:45.183Z,1.40
2022-10-31T01:38:11.651Z,1.67
2022-10-31T01:40:38.170Z,1.35
2022-10-31T01:43:04.641Z,1.65
2022-10-31T01:45:31.163Z,1.40
2022-10-31T01:47:57.973Z,1.80
2022-10-31T01:50:32.376Z,1.88
2022-10-31T01:52:59.126Z,1.75
2022-10-31T01:55:29.981Z,2.65
2022-10-31T01:57:59.886Z,1.83
2022-10-31T02:00:26.595Z,1.80
2022-10-31T02:02:53.068Z,1.52
2022-10-31T02:05:22.033Z,1.92
2022-10-31T02:07:54.988Z,1.50
2022-10-31T02:10:23.194Z,1.93
2022-10-31T02:12:51.373Z,2.25
2022-10-31T02:15:17.876Z,1.50
2022-10-31T02:17:44.377Z,1.60
2022-10-31T02:20:11.018Z,1.45
2022-10-31T02:22:41.865Z,1.30
2022-10-31T02:25:14.583Z,1.38
2022-10-31T02:27:40.998Z,1.40
2022-10-31T02:30:07.528Z,1.23
2022-10-31T02:32:39.959Z,2.05
2022-10-31T02:35:06.503Z,1.48
2022-10-31T02:37:38.928Z,2.38
2022-10-31T02:40:08.505Z,1.50
2022-10-31T02:42:40.127Z,1.65
2022-10-31T02:45:06.575Z,1.48
2022-10-31T02:47:38.086Z,1.58
2022-10-31T02:50:15.788Z,1.65
2022-10-31T02:52:42.266Z,1.70
2022-10-31T02:55:23.941Z,1.75
2022-10-31T02:57:51.995Z,1.50
2022-10-31T03:00:18.509Z,2.10
2022-10-31T03:02:45.047Z,1.67
2022-10-31T03:05:30.128Z,1.48
2022-10-31T03:08:16.950Z,1.98
2022-10-31T03:10:43.445Z,1.30
2022-10-31T03:15:57.489Z,2.00
2022-10-31T03:18:50.312Z,2.55
2022-10-31T03:21:23.287Z,1.63
2022-10-31T03:23:51.690Z,1.50
2022-10-31T03:26:18.818Z,1.65
2022-10-31T03:28:47.469Z,2.10
2022-10-31T03:31:17.112Z,1.65
2022-10-31T03:33:44.055Z,1.75
2022-10-31T03:36:11.818Z,1.55
2022-10-31T03:38:39.741Z,2.05
2022-10-31T03:41:11.554Z,1.67
2022-10-31T03:43:41.721Z,1.98
2022-10-31T03:46:08.185Z,1.60
2022-10-31T03:48:34.943Z,1.80
2022-10-31T03:51:11.974Z,1.58
2022-10-31T03:53:41.802Z,1.90
2022-10-31T03:56:11.164Z,2.15
2022-10-31T03:58:55.176Z,1.80
2022-10-31T04:01:22.969Z,1.08
2022-10-31T04:03:49.948Z,1.35
2022-10-31T04:06:18.089Z,2.00
2022-10-31T04:08:48.137Z,1.95
2022-10-31T04:11:16.283Z,1.52
2022-10-31T04:13:45.088Z,2.50
2022-10-31T04:16:15.974Z,1.80
2022-10-31T04:18:43.838Z,2.20
2022-10-31T04:21:10.287Z,2.75
2022-10-31T04:23:37.281Z,2.22
2022-10-31T04:26:03.952Z,1.50
2022-10-31T04:28:30.507Z,2.00
2022-10-31T04:30:56.969Z,2.15
2022-10-31T04:33:23.532Z,1.92
2022-10-31T04:35:50.058Z,1.55
2022-10-31T04:38:16.497Z,2.00
2022-10-31T04:40:43.005Z,1.90
2022-10-31T04:43:09.588Z,1.73
2022-10-31T04:45:36.179Z,2.03
2022-10-31T04:48:03.023Z,1.92
2022-10-31T04:50:29.695Z,1.95
2022-10-31T04:52:56.180Z,1.58
2022-10-31T04:55:22.624Z,2.72
2022-10-31T04:57:50.054Z,1.52
2022-10-31T05:00:18.245Z,1.50
2022-10-31T05:02:48.633Z,2.05
2022-10-31T05:05:16.092Z,2.00
2022-10-31T05:07:43.377Z,1.67
2022-10-31T05:10:13.909Z,2.40
2022-10-31T05:12:47.258Z,2.00
2022-10-31T05:15:13.798Z,1.95
2022-10-31T05:17:40.340Z,2.83
2022-10-31T05:20:08.316Z,2.00
2022-10-31T05:22:34.841Z,2.53
2022-10-31T05:25:01.309Z,2.53
2022-10-31T05:27:27.784Z,1.73
2022-10-31T05:29:54.243Z,2.58
2022-10-31T05:32:20.737Z,1.83
2022-10-31T05:34:47.183Z,1.80
2022-10-31T05:37:13.622Z,2.80
2022-10-31T05:39:40.083Z,1.70
2022-10-31T05:42:06.518Z,2.55
2022-10-31T05:44:33.008Z,1.67
2022-10-31T05:46:59.446Z,2.40
2022-10-31T05:49:25.937Z,2.17
2022-10-31T05:51:52.397Z,1.98
2022-10-31T05:54:18.833Z,4.05
2022-10-31T05:56:45.326Z,2.30
2022-10-31T05:59:11.818Z,3.47
2022-10-31T06:01:38.371Z,2.88
2022-10-31T06:04:04.958Z,2.92
2022-10-31T06:06:31.438Z,2.55
2022-10-31T06:08:57.921Z,2.08
2022-10-31T06:11:24.545Z,2.70
2022-10-31T06:13:51.022Z,3.47
2022-10-31T06:16:17.501Z,2.85
2022-10-31T06:18:43.923Z,2.58
2022-10-31T06:21:12.464Z,2.95
2022-10-31T06:23:41.441Z,3.17
2022-10-31T06:26:07.927Z,3.45
2022-10-31T06:28:34.378Z,3.60
2022-10-31T06:31:00.863Z,2.72
2022-10-31T06:33:27.352Z,3.80
2022-10-31T06:35:53.819Z,2.78
2022-10-31T06:38:20.289Z,3.97
2022-10-31T06:40:46.753Z,3.97
2022-10-31T06:43:13.819Z,3.08
2022-10-31T06:45:40.303Z,3.70
2022-10-31T06:48:22.602Z,3.85
2022-10-31T06:50:49.397Z,3.60
2022-10-31T06:53:15.953Z,4.35
2022-10-31T06:55:43.065Z,4.30
2022-10-31T06:58:10.618Z,4.47
2022-10-31T07:00:37.417Z,3.70
2022-10-31T07:03:05.264Z,4.38
2022-10-31T07:05:32.147Z,5.07
2022-10-31T07:08:00.115Z,4.47
2022-10-31T07:10:27.562Z,3.75
2022-10-31T07:12:57.837Z,4.15
2022-10-31T07:15:28.472Z,4.30
2022-10-31T07:17:55.058Z,3.00
2022-10-31T07:20:21.552Z,3.97
2022-10-31T07:22:50.659Z,3.08
2022-10-31T07:25:17.402Z,3.10
2022-10-31T07:27:44.125Z,2.97
2022-10-31T07:30:11.505Z,2.22
2022-10-31T07:32:48.314Z,3.03
2022-10-31T07:35:16.096Z,2.40
2022-10-31T07:37:42.598Z,3.58
2022-10-31T07:40:09.963Z,2.42
2022-10-31T07:42:40.221Z,3.83
2022-10-31T07:45:07.428Z,3.03
2022-10-31T07:48:00.372Z,3.47
2022-10-31T07:50:29.239Z,2.78
2022-10-31T07:53:06.272Z,2.67
2022-10-31T07:55:33.263Z,4.40
2022-10-31T07:58:04.346Z,3.17
2022-10-31T08:00:31.796Z,4.45
2022-10-31T08:02:59.555Z,2.67
2022-10-31T08:05:26.394Z,3.20
2022-10-31T08:07:52.913Z,3.13
2022-10-31T08:10:19.504Z,3.50
2022-10-31T08:12:46.113Z,3.53
2022-10-31T08:15:12.575Z,3.30
2022-10-31T08:17:39.411Z,4.05
2022-10-31T08:20:06.674Z,2.85
2022-10-31T08:22:33.168Z,3.15
2022-10-31T08:24:59.702Z,3.00
2022-10-31T08:27:26.165Z,3.85
2022-10-31T08:29:52.641Z,3.35
2022-10-31T08:32:19.096Z,3.30
2022-10-31T08:34:45.611Z,3.90
2022-10-31T08:37:12.119Z,2.70
2022-10-31T08:39:38.594Z,3.72
2022-10-31T08:42:05.073Z,3.30
2022-10-31T08:44:31.525Z,3.53
2022-10-31T08:46:58.002Z,3.60
2022-10-31T08:49:24.441Z,3.88
2022-10-31T08:51:51.400Z,3.17
2022-10-31T08:54:17.893Z,3.70
2022-10-31T08:56:44.413Z,3.65
2022-10-31T08:59:10.990Z,4.25
2022-10-31T09:01:37.806Z,4.13
2022-10-31T09:04:04.399Z,3.33
2022-10-31T09:06:31.014Z,3.90
2022-10-31T09:08:57.657Z,4.18
2022-10-31T09:11:24.193Z,3.75
2022-10-31T09:13:50.949Z,4.40
2022-10-31T09:16:24.360Z,4.40
2022-10-31T09:18:53.721Z,4.10
2022-10-31T09:21:20.638Z,3.92
2022-10-31T09:23:47.337Z,4.45
2022-10-31T09:26:13.957Z,3.85
2022-10-31T09:28:40.557Z,4.28
2022-10-31T09:31:07.085Z,3.75
2022-10-31T09:33:33.862Z,5.05
2022-10-31T09:36:00.768Z,4.00
2022-10-31T09:38:27.423Z,4.50
2022-10-31T09:40:56.889Z,4.10
2022-10-31T09:43:32.425Z,4.32
2022-10-31T09:46:16.376Z,4.75
2022-10-31T09:48:51.714Z,3.80
2022-10-31T09:51:20.963Z,3.45
2022-10-31T09:53:50.205Z,5.10
2022-10-31T09:56:18.778Z,4.97
2022-10-31T09:58:49.617Z,3.92
2022-10-31T10:01:34.846Z,4.82
2022-10-31T10:04:04.141Z,3.97
2022-10-31T10:06:33.895Z,4.38
2022-10-31T10:09:00.467Z,4.88
2022-10-31T10:11:39.109Z,5.82
2022-10-31T10:14:14.848Z,4.15
2022-10-31T10:16:44.308Z,3.85
2022-10-31T10:19:31.078Z,4.15
2022-10-31T10:22:00.403Z,3.88
2022-10-31T10:24:45.633Z,5.00
2022-10-31T10:27:24.446Z,3.05
2022-10-31T10:30:01.760Z,3.47
2022-10-31T10:32:29.357Z,3.47
2022-10-31T10:35:00.096Z,5.40
2022-10-31T10:37:31.322Z,4.07
2022-10-31T10:40:04.049Z,3.80
2022-10-31T10:42:48.941Z,4.07
2022-10-31T10:45:35.593Z,3.75
2022-10-31T10:48:13.294Z,3.25
2022-10-31T10:50:42.568Z,3.80
2022-10-31T10:53:32.934Z,4.68
2022-10-31T10:56:12.651Z,4.38
2022-10-31T10:58:40.371Z,4.63
2022-10-31T11:03:47.725Z,6.45
2022-10-31T11:06:18.236Z,3.63
2022-10-31T11:08:44.784Z,3.55
2022-10-31T11:11:17.481Z,3.95
2022-10-31T11:13:45.680Z,4.45
2022-10-31T11:16:27.654Z,4.05
2022-10-31T11:18:54.520Z,3.65
2022-10-31T11:21:29.368Z,4.40
2022-10-31T11:24:05.060Z,4.03
2022-10-31T11:26:31.604Z,3.85
2022-10-31T11:28:59.673Z,4.95
2022-10-31T11:31:26.869Z,5.00
2022-10-31T11:34:13.541Z,4.40
2022-10-31T11:36:40.578Z,4.55
2022-10-31T11:39:13.972Z,5.40
2022-10-31T11:41:42.325Z,4.50
2022-10-31T11:44:29.230Z,6.10
2022-10-31T11:47:00.130Z,4.53
2022-10-31T11:49:30.652Z,4.70
2022-10-31T11:51:58.393Z,4.85
2022-10-31T11:54:26.934Z,4.47
2022-10-31T11:56:53.861Z,4.72
2022-10-31T11:59:30.616Z,4.13
2022-10-31T12:01:58.342Z,4.47
2022-10-31T12:04:45.213Z,4.45
2022-10-31T12:07:11.903Z,5.53
2022-10-31T12:09:39.461Z,5.50
2022-10-31T12:12:15.029Z,4.88
2022-10-31T12:14:44.668Z,4.55
2022-10-31T12:17:14.152Z,5.72
2022-10-31T12:19:48.298Z,5.07
2022-10-31T12:22:15.599Z,6.57
2022-10-31T12:24:51.127Z,5.13
2022-10-31T12:27:36.367Z,4.68
2022-10-31T12:30:15.183Z,3.95
2022-10-31T12:32:50.859Z,4.15
2022-10-31T12:35:36.340Z,4.55
2022-10-31T12:38:03.221Z,5.35
2022-10-31T12:40:42.584Z,6.90
2022-10-31T12:43:35.901Z,5.32
2022-10-31T12:46:03.221Z,5.13
2022-10-31T12:48:43.759Z,5.13
2022-10-31T12:51:13.357Z,6.93
2022-10-31T12:53:49.011Z,6.07
2022-10-31T12:56:15.493Z,5.45
2022-10-31T12:58:48.194Z,4.75
2022-10-31T13:01:32.900Z,5.68
2022-10-31T13:04:06.095Z,6.18
2022-10-31T13:06:45.015Z,4.53
2022-10-31T13:09:14.617Z,6.15
2022-10-31T13:11:46.847Z,6.57
2022-10-31T13:14:13.520Z,5.05
2022-10-31T13:16:42.424Z,6.20
2022-10-31T13:19:17.878Z,5.38
2022-10-31T13:21:52.639Z,5.90
2022-10-31T13:24:21.763Z,5.80
2022-10-31T13:26:53.267Z,5.18
2022-10-31T13:29:26.897Z,4.90
2022-10-31T13:31:56.434Z,6.65
2022-10-31T13:34:40.192Z,6.00
2022-10-31T13:37:14.023Z,5.72
2022-10-31T13:40:07.030Z,5.47
2022-10-31T13:42:33.530Z,5.35
2022-10-31T13:45:16.355Z,5.82
2022-10-31T13:47:44.061Z,5.70
2022-10-31T13:50:22.356Z,6.53
2022-10-31T13:52:48.871Z,7.18
2022-10-31T13:55:34.177Z,6.00
2022-10-31T13:58:01.111Z,6.93
2022-10-31T14:00:27.918Z,7.07
2022-10-31T14:02:56.809Z,6.05
2022-10-31T14:05:28.522Z,6.65
2022-10-31T14:07:55.829Z,7.18
2022-10-31T14:10:22.619Z,6.43
2022-10-31T14:12:49.744Z,6.03
2022-10-31T14:15:21.360Z,6.80
2022-10-31T14:17:47.811Z,6.75
2022-10-31T14:20:15.044Z,6.90
2022-10-31T14:22:43.093Z,6.00
2022-10-31T14:25:29.214Z,6.88
2022-10-31T14:27:55.979Z,6.35
2022-10-31T14:30:26.432Z,7.18
2022-10-31T14:32:54.712Z,6.60
2022-10-31T14:35:21.862Z,7.75
2022-10-31T14:40:41.263Z,7.38
2022-10-31T14:43:25.393Z,7.43
2022-10-31T14:45:55.761Z,6.65
2022-10-31T14:48:31.546Z,5.93
2022-10-31T14:50:59.585Z,8.73
2022-10-31T14:53:37.151Z,6.90
2022-10-31T14:56:16.365Z,7.68
2022-10-31T14:58:45.249Z,6.18
2022-10-31T15:01:26.594Z,6.85
2022-10-31T15:04:21.863Z,7.57
2022-10-31T15:06:43.001Z,6.50
2022-10-31T15:09:25.903Z,7.28
2022-10-31T15:11:54.790Z,6.75
2022-10-31T15:14:26.229Z,7.10
2022-10-31T15:16:53.224Z,7.05
2022-10-31T15:19:30.484Z,7.72
2022-10-31T15:21:57.916Z,6.95
2022-10-31T15:24:26.533Z,6.82
2022-10-31T15:26:53.741Z,7.50
2022-10-31T15:29:24.313Z,7.43
2022-10-31T15:31:54.895Z,7.78
2022-10-31T15:34:41.632Z,8.40
2022-10-31T15:37:15.809Z,7.00
2022-10-31T15:39:42.946Z,7.63
2022-10-31T15:42:28.109Z,7.50
2022-10-31T15:45:06.858Z,6.38
2022-10-31T15:47:34.158Z,7.45
2022-10-31T15:50:01.631Z,7.03
2022-10-31T15:52:41.013Z,8.27
2022-10-31T15:55:10.254Z,6.97
2022-10-31T15:57:41.457Z,7.05
2022-10-31T16:00:08.303Z,6.50
2022-10-31T16:02:35.304Z,8.32
2022-10-31T16:05:02.465Z,7.07
2022-10-31T16:07:30.103Z,6.80
2022-10-31T16:10:01.181Z,8.57
2022-10-31T16:12:33.155Z,7.32
2022-10-31T16:14:59.753Z,7.78
2022-10-31T16:17:27.517Z,6.95
2022-10-31T16:19:59.094Z,7.18
2022-10-31T16:22:27.245Z,7.13
2022-10-31T16:25:00.984Z,7.65
2022-10-31T16:27:29.880Z,7.55
2022-10-31T16:29:57.618Z,7.38
2022-10-31T16:32:33.885Z,5.88
2022-10-31T16:35:01.683Z,6.57
2022-10-31T16:37:28.278Z,8.05
2022-10-31T16:39:54.809Z,6.88
2022-10-31T16:42:21.355Z,6.68
2022-10-31T16:44:48.609Z,8.13
2022-10-31T16:47:16.789Z,8.05
2022-10-31T16:49:43.842Z,8.20
2022-10-31T16:52:10.478Z,7.63
2022-10-31T16:54:36.947Z,6.60
2022-10-31T16:57:04.072Z,7.20
2022-10-31T16:59:31.152Z,7.40
2022-10-31T17:01:57.690Z,7.35
2022-10-31T17:04:24.623Z,7.57
2022-10-31T17:06:51.118Z,6.70
2022-10-31T17:09:17.617Z,6.72
2022-10-31T17:11:49.778Z,6.97
2022-10-31T17:14:17.484Z,7.65
2022-10-31T17:16:44.063Z,7.13
2022-10-31T17:19:11.886Z,6.32
2022-10-31T17:21:38.751Z,6.45
2022-10-31T17:24:05.431Z,6.20
2022-10-31T17:26:31.941Z,6.35
2022-10-31T17:29:00.123Z,6.88
2022-10-31T17:31:30.396Z,6.50
2022-10-31T17:34:02.329Z,7.45
2022-10-31T17:36:30.015Z,7.55
2022-10-31T17:38:56.491Z,6.82
2022-10-31T17:41:22.980Z,5.93
2022-10-31T17:43:49.512Z,6.75
2022-10-31T17:46:16.120Z,6.80
2022-10-31T17:48:42.651Z,7.30
2022-10-31T17:51:09.219Z,7.13
2022-10-31T17:53:35.718Z,6.45
2022-10-31T17:56:03.903Z,6.65
2022-10-31T17:58:30.797Z,6.70
2022-10-31T18:00:57.891Z,7.18
2022-10-31T18:03:24.735Z,6.00
2022-10-31T18:05:58.617Z,8.88
2022-10-31T18:10:51.669Z,5.60
2022-10-31T18:13:18.181Z,5.40
2022-10-31T18:15:44.636Z,6.68
2022-10-31T18:18:11.106Z,6.32
2022-10-31T18:20:37.647Z,7.72
2022-10-31T18:23:04.549Z,8.15
2022-10-31T18:25:31.046Z,6.30
2022-10-31T18:27:57.607Z,6.30
2022-10-31T18:30:24.126Z,7.82
2022-10-31T18:32:51.436Z,7.50
2022-10-31T18:35:18.418Z,7.60
2022-10-31T18:37:44.886Z,9.63
2022-10-31T18:40:11.471Z,10.00
2022-10-31T18:42:38.573Z,9.32
2022-10-31T18:45:11.287Z,7.63
2022-10-31T18:47:43.625Z,7.60
2022-10-31T18:50:10.437Z,7.25
2022-10-31T18:52:36.953Z,8.68
2022-10-31T18:55:03.798Z,7.10
2022-10-31T18:57:30.304Z,9.23
2022-10-31T18:59:56.765Z,8.93
2022-10-31T19:02:23.369Z,7.97
2022-10-31T19:04:49.909Z,8.15
2022-10-31T19:07:16.547Z,7.63
2022-10-31T19:09:43.273Z,7.45
2022-10-31T19:12:09.885Z,6.75
2022-10-31T19:14:36.349Z,7.15
2022-10-31T19:17:02.936Z,7.07
2022-10-31T19:19:29.654Z,6.53
2022-10-31T19:21:56.893Z,7.28
2022-10-31T19:24:25.294Z,7.18
2022-10-31T19:26:53.606Z,7.22
2022-10-31T19:29:20.247Z,6.63
2022-10-31T19:31:48.274Z,7.72
2022-10-31T19:34:14.765Z,7.68
2022-10-31T19:36:41.356Z,8.48
2022-10-31T19:39:07.788Z,14.27
2022-10-31T19:41:34.322Z,74.47
2022-10-31T19:44:01.116Z,78.63
2022-10-31T19:46:48.269Z,28.65
2022-10-31T19:49:14.195Z,25.92
2022-10-31T19:51:40.751Z,15.98
2022-10-31T19:54:07.305Z,91.10
2022-10-31T19:56:33.833Z,16.35
2022-10-31T19:59:00.276Z,19.10
2022-10-31T20:01:26.998Z,12.07
2022-10-31T20:03:53.603Z,10.20
2022-10-31T20:06:27.922Z,13.38
2022-10-31T20:08:56.172Z,9.32
2022-10-31T20:11:26.404Z,11.18
2022-10-31T20:13:54.912Z,9.77
2022-10-31T20:16:21.431Z,9.02
2022-10-31T20:18:48.086Z,11.40
2022-10-31T20:21:15.942Z,8.68
2022-10-31T20:23:42.451Z,10.43
2022-10-31T20:26:10.303Z,8.52
2022-10-31T20:28:40.096Z,9.63
2022-10-31T20:31:11.317Z,10.48
2022-10-31T20:33:38.405Z,9.90
2022-10-31T20:36:05.663Z,10.75
2022-10-31T20:38:32.315Z,7.38
2022-10-31T20:41:02.551Z,8.15
2022-10-31T20:43:31.801Z,8.77
2022-10-31T20:46:11.202Z,11.07
2022-10-31T20:48:37.813Z,7.75
2022-10-31T20:51:06.569Z,8.65
2022-10-31T20:53:33.360Z,9.45
2022-10-31T20:56:07.108Z,7.80
2022-10-31T20:58:34.483Z,7.30
2022-10-31T21:01:01.112Z,7.15
2022-10-31T21:03:27.710Z,129.88
2022-10-31T21:05:54.171Z,153.15
2022-10-31T21:08:20.641Z,36.50
2022-10-31T21:10:47.219Z,25.90
2022-10-31T21:13:13.669Z,16.65
2022-10-31T21:15:40.258Z,13.93
2022-10-31T21:18:06.744Z,12.38
2022-10-31T21:20:33.191Z,11.10
2022-10-31T21:23:00.084Z,13.75
2022-10-31T21:25:27.052Z,10.45
2022-10-31T21:27:53.522Z,10.48
2022-10-31T21:30:20.021Z,10.65
2022-10-31T21:32:46.522Z,13.23
2022-10-31T21:35:13.004Z,17.65
2022-10-31T21:37:39.446Z,10.25
2022-10-31T21:40:06.325Z,9.57
2022-10-31T21:42:32.802Z,9.15
2022-10-31T21:44:59.386Z,10.95
2022-10-31T21:47:26.097Z,8.85
2022-10-31T21:49:52.566Z,9.50
2022-10-31T21:52:19.050Z,13.13
2022-10-31T21:54:45.508Z,9.38
2022-10-31T21:57:12.102Z,10.10
2022-10-31T21:59:38.773Z,9.05
2022-10-31T22:02:05.394Z,8.85
2022-10-31T22:04:33.266Z,8.50
2022-10-31T22:06:59.788Z,8.88
2022-10-31T22:09:26.314Z,7.22
2022-10-31T22:11:52.814Z,7.57
2022-10-31T22:14:19.290Z,8.98
2022-10-31T22:16:45.810Z,7.57
2022-10-31T22:19:13.276Z,8.00
2022-10-31T22:21:43.884Z,7.40
2022-10-31T22:24:10.847Z,7.05
2022-10-31T22:26:37.733Z,7.15
2022-10-31T22:29:05.523Z,8.13
2022-10-31T22:31:32.501Z,9.18
2022-10-31T22:33:59.009Z,8.35
2022-10-31T22:36:29.570Z,6.35
2022-10-31T22:38:56.181Z,7.07
2022-10-31T22:41:24.251Z,7.28
2022-10-31T22:43:50.980Z,8.27
2022-10-31T22:46:18.681Z,8.07
2022-10-31T22:48:49.477Z,7.25
2022-10-31T22:51:18.018Z,7.40
2022-10-31T22:53:45.089Z,8.07
2022-10-31T22:56:12.914Z,6.90
2022-10-31T22:58:39.483Z,7.50
2022-10-31T23:01:07.247Z,8.05
2022-10-31T23:03:34.824Z,6.88
2022-10-31T23:06:02.208Z,6.35
2022-10-31T23:08:29.700Z,7.50
2022-10-31T23:10:56.456Z,7.97
2022-10-31T23:13:41.556Z,6.22
2022-10-31T23:16:09.069Z,6.88
2022-10-31T23:18:49.663Z,7.07
2022-10-31T23:21:32.788Z,7.50
2022-10-31T23:23:59.375Z,6.47
2022-10-31T23:26:44.537Z,6.22
2022-10-31T23:29:11.067Z,6.65
2022-10-31T23:31:37.672Z,7.68
2022-10-31T23:34:04.168Z,7.50
2022-10-31T23:36:30.802Z,7.38
2022-10-31T23:38:57.287Z,6.05
2022-10-31T23:41:23.813Z,7.35
2022-10-31T23:43:50.339Z,7.80
2022-10-31T23:48:49.612Z,7.47
2022-10-31T23:51:16.206Z,7.57
2022-10-31T23:53:46.756Z,8.73
2022-10-31T23:56:15.841Z,9.75
2022-10-31T23:58:42.667Z,8.73
